Time;durP1;ratioP1;P1;durP2;ratioP2;P2;SDS_P1;SDS_P2;PMS_P1;PMS_P2;Temp;Humidity;BMP_temperature;BMP_pressure;BME280_temperature;BME280_humidity;BME280_pressure;Samples;Min_cycle;Max_cycle;Signal;HPM_P1;HPM_P2
2023/08/14 00:01:08;;;;;;;3.97;2.00;;;22.00;99.90;;;;;;5113528;28;20592;-67
2023/08/14 00:03:35;;;;;;;3.70;2.00;;;22.00;99.90;;;;;;5114030;28;20439;-67
2023/08/14 00:06:02;;;;;;;2.93;1.77;;;22.00;99.90;;;;;;5113486;28;20513;-68
2023/08/14 00:08:29;;;;;;;2.97;1.67;;;21.90;99.90;;;;;;5113923;28;20430;-67
2023/08/14 00:10:56;;;;;;;3.53;1.93;;;21.90;99.90;;;;;;5112984;28;20599;-68
2023/08/14 00:13:24;;;;;;;4.00;1.87;;;21.90;99.90;;;;;;5113825;28;20560;-68
2023/08/14 00:15:51;;;;;;;2.73;1.47;;;21.80;99.90;;;;;;5113488;28;20871;-68
2023/08/14 00:18:18;;;;;;;2.60;1.60;;;21.80;99.90;;;;;;5113392;28;20844;-68
2023/08/14 00:20:46;;;;;;;2.73;1.57;;;21.70;99.70;;;;;;5113763;28;20526;-67
2023/08/14 00:23:13;;;;;;;3.27;1.90;;;21.70;99.80;;;;;;5113702;28;20470;-68
2023/08/14 00:25:40;;;;;;;2.80;1.57;;;21.70;99.90;;;;;;5113186;28;20856;-68
2023/08/14 00:28:07;;;;;;;3.00;1.83;;;21.60;99.90;;;;;;5113704;28;20857;-68
2023/08/14 00:30:35;;;;;;;3.70;2.03;;;21.60;99.90;;;;;;5113315;28;20433;-68
2023/08/14 00:33:02;;;;;;;4.70;2.30;;;21.60;99.90;;;;;;5117377;28;20557;-68
2023/08/14 00:35:29;;;;;;;3.30;2.03;;;21.50;99.90;;;;;;5117616;28;20522;-67
2023/08/14 00:37:56;;;;;;;3.07;2.00;;;21.30;99.90;;;;;;5117061;28;20960;-67
2023/08/14 00:40:23;;;;;;;4.90;2.30;;;21.20;99.90;;;;;;5117578;28;20466;-68
2023/08/14 00:42:50;;;;;;;2.90;2.30;;;21.20;99.90;;;;;;5117602;28;20458;-68
2023/08/14 00:45:17;;;;;;;3.00;1.90;;;21.20;99.90;;;;;;5117514;28;20474;-67
2023/08/14 00:47:48;;;;;;;3.13;1.90;;;21.30;99.90;;;;;;5117711;28;20470;-68
2023/08/14 00:50:16;;;;;;;2.70;1.73;;;21.30;99.90;;;;;;5117307;28;20526;-68
2023/08/14 00:52:45;;;;;;;2.93;1.80;;;21.30;99.90;;;;;;5117083;28;20466;-69
2023/08/14 00:55:14;;;;;;;3.37;1.97;;;21.20;99.90;;;;;;5117063;28;20988;-67
2023/08/14 00:57:41;;;;;;;2.83;1.57;;;21.20;99.90;;;;;;5117278;28;20824;-68
2023/08/14 01:00:11;;;;;;;3.80;2.00;;;21.20;99.90;;;;;;5117353;28;20513;-68
2023/08/14 01:02:39;;;;;;;2.90;1.43;;;21.20;99.90;;;;;;5117230;28;20442;-68
2023/08/14 01:05:07;;;;;;;3.57;2.53;;;21.20;99.90;;;;;;5116858;28;20430;-68
2023/08/14 01:07:34;;;;;;;2.50;1.67;;;21.10;99.90;;;;;;5116445;28;20462;-68
2023/08/14 01:10:03;;;;;;;3.20;1.60;;;21.10;99.90;;;;;;5116152;28;21016;-67
2023/08/14 01:12:38;;;;;;;2.87;1.77;;;21.00;99.90;;;;;;5116640;28;20474;-68
2023/08/14 01:15:10;;;;;;;3.00;2.03;;;21.00;99.90;;;;;;5117218;28;20462;-67
2023/08/14 01:17:40;;;;;;;3.97;2.10;;;20.90;99.90;;;;;;5117029;28;20465;-68
2023/08/14 01:20:11;;;;;;;2.80;1.80;;;20.90;99.90;;;;;;5116603;28;20478;-67
2023/08/14 01:22:46;;;;;;;3.17;1.90;;;20.80;99.90;;;;;;5116959;28;20837;-67
2023/08/14 01:25:38;;;;;;;4.00;1.60;;;20.70;99.90;;;;;;5116526;28;20418;-68
2023/08/14 01:28:06;;;;;;;3.13;2.00;;;20.60;99.90;;;;;;5097047;28;20794;-68
2023/08/14 01:30:33;;;;;;;3.27;2.23;;;20.60;99.90;;;;;;5116079;28;20465;-67
2023/08/14 01:33:01;;;;;;;6.57;2.50;;;20.60;99.90;;;;;;5116539;28;20473;-68
2023/08/14 01:35:31;;;;;;;4.20;1.97;;;20.70;99.90;;;;;;5116660;28;20463;-67
2023/08/14 01:38:06;;;;;;;4.73;1.80;;;20.70;99.90;;;;;;5116356;28;20474;-67
2023/08/14 01:40:41;;;;;;;2.40;1.30;;;20.60;99.90;;;;;;5116459;28;20509;-67
2023/08/14 01:43:12;;;;;;;2.70;1.43;;;20.60;99.90;;;;;;5115617;28;20458;-67
2023/08/14 01:45:39;;;;;;;2.20;1.30;;;20.60;99.90;;;;;;5116430;28;20839;-68
2023/08/14 01:48:08;;;;;;;7.33;2.00;;;20.60;99.90;;;;;;5116335;28;20521;-68
2023/08/14 01:50:37;;;;;;;2.90;1.80;;;20.60;99.90;;;;;;5115800;28;20481;-67
2023/08/14 01:53:05;;;;;;;3.50;1.90;;;20.60;99.90;;;;;;5116286;28;20557;-67
2023/08/14 01:55:32;;;;;;;2.80;1.60;;;20.50;99.90;;;;;;5116297;28;20431;-70
2023/08/14 01:57:59;;;;;;;3.00;1.90;;;20.50;99.90;;;;;;5115409;28;20491;-67
2023/08/14 02:00:31;;;;;;;4.00;1.80;;;20.40;99.90;;;;;;5115780;28;20523;-68
2023/08/14 02:02:58;;;;;;;4.30;2.10;;;20.50;99.90;;;;;;5115853;28;20505;-67
2023/08/14 02:05:25;;;;;;;3.50;2.10;;;20.40;99.90;;;;;;5115739;28;20516;-68
2023/08/14 02:07:52;;;;;;;3.90;1.87;;;20.30;99.90;;;;;;5115722;28;20993;-68
2023/08/14 02:10:19;;;;;;;3.03;2.20;;;20.40;99.90;;;;;;5115351;28;20541;-67
2023/08/14 02:12:46;;;;;;;3.40;2.40;;;20.40;99.90;;;;;;5115783;28;20918;-67
2023/08/14 02:15:13;;;;;;;3.30;2.20;;;20.40;99.90;;;;;;5115578;28;20477;-68
2023/08/14 02:17:41;;;;;;;2.40;1.60;;;20.40;99.90;;;;;;5115231;28;20466;-68
2023/08/14 02:20:09;;;;;;;2.57;1.47;;;20.40;99.90;;;;;;5115207;28;20522;-67
2023/08/14 02:22:36;;;;;;;3.20;2.10;;;20.50;99.90;;;;;;5115368;28;20480;-68
2023/08/14 02:25:03;;;;;;;4.00;2.03;;;20.50;99.90;;;;;;5115316;28;20473;-67
2023/08/14 02:27:30;;;;;;;6.27;1.97;;;20.50;99.90;;;;;;5115089;28;20477;-68
2023/08/14 02:29:57;;;;;;;4.00;1.60;;;20.50;99.90;;;;;;5115189;28;20513;-67
2023/08/14 02:32:24;;;;;;;3.97;1.87;;;20.50;99.90;;;;;;5114918;28;20523;-67
2023/08/14 02:34:53;;;;;;;3.60;2.53;;;20.40;99.90;;;;;;5115468;28;20495;-67
2023/08/14 02:37:21;;;;;;;5.20;1.93;;;20.40;99.90;;;;;;5115440;28;20435;-68
2023/08/14 02:39:48;;;;;;;2.73;1.83;;;20.40;99.90;;;;;;5115450;28;20521;-68
2023/08/14 02:42:16;;;;;;;2.90;2.00;;;20.30;99.90;;;;;;5113997;28;20435;-68
2023/08/14 02:44:43;;;;;;;4.40;2.00;;;20.30;99.90;;;;;;5115051;28;20472;-67
2023/08/14 02:47:10;;;;;;;3.00;2.10;;;20.30;99.90;;;;;;5115367;28;20473;-68
2023/08/14 02:49:37;;;;;;;3.00;2.30;;;20.20;99.90;;;;;;5115227;28;20466;-67
2023/08/14 02:52:06;;;;;;;4.80;2.57;;;20.20;99.90;;;;;;5114908;28;20528;-67
2023/08/14 02:54:33;;;;;;;2.93;2.17;;;20.30;99.90;;;;;;5113805;28;20481;-68
2023/08/14 02:57:00;;;;;;;3.20;2.07;;;20.30;99.90;;;;;;5114742;27;20466;-68
2023/08/14 02:59:27;;;;;;;5.43;2.30;;;20.30;99.90;;;;;;5115112;28;20537;-67
2023/08/14 03:01:54;;;;;;;4.00;2.57;;;20.30;99.90;;;;;;5114633;28;20438;-67
2023/08/14 03:04:21;;;;;;;4.60;2.53;;;20.30;99.90;;;;;;5114532;28;20481;-68
2023/08/14 03:06:48;;;;;;;4.20;2.20;;;20.30;99.90;;;;;;5114873;28;20457;-68
2023/08/14 03:09:16;;;;;;;6.47;2.70;;;20.30;99.90;;;;;;5114605;28;20474;-68
2023/08/14 03:11:43;;;;;;;3.20;2.13;;;20.30;99.90;;;;;;5114455;28;20459;-68
2023/08/14 03:14:10;;;;;;;3.50;2.20;;;20.30;99.90;;;;;;5114552;28;20570;-67
2023/08/14 03:16:36;;;;;;;2.97;2.03;;;20.20;99.90;;;;;;5114364;28;20968;-67
2023/08/14 03:19:04;;;;;;;5.77;2.87;;;20.20;99.90;;;;;;5114264;28;20513;-68
2023/08/14 03:21:30;;;;;;;3.20;2.67;;;20.10;99.90;;;;;;5114341;28;20438;-68
2023/08/14 03:23:57;;;;;;;3.73;2.23;;;20.00;99.90;;;;;;5114516;28;20480;-67
2023/08/14 03:26:26;;;;;;;4.90;2.70;;;20.00;99.90;;;;;;5114071;28;20971;-67
2023/08/14 03:28:53;;;;;;;3.73;2.80;;;20.00;99.90;;;;;;5114512;28;20435;-68
2023/08/14 03:31:19;;;;;;;4.73;3.03;;;20.10;99.90;;;;;;5113360;28;20479;-68
2023/08/14 03:33:46;;;;;;;5.00;3.90;;;20.10;99.90;;;;;;5113911;28;20506;-67
2023/08/14 03:36:13;;;;;;;3.80;3.10;;;20.00;99.90;;;;;;5113744;28;21008;-67
2023/08/14 03:38:40;;;;;;;4.40;3.50;;;19.90;99.90;;;;;;5114246;28;20524;-68
2023/08/14 03:41:07;;;;;;;5.90;3.60;;;19.90;99.90;;;;;;5114234;28;20466;-67
2023/08/14 03:43:35;;;;;;;4.20;3.03;;;19.90;99.90;;;;;;5114307;28;20469;-68
2023/08/14 03:46:02;;;;;;;5.23;2.97;;;19.90;99.90;;;;;;5113851;28;20489;-68
2023/08/14 03:48:29;;;;;;;4.50;3.00;;;19.90;99.90;;;;;;5113810;28;20449;-67
2023/08/14 03:50:56;;;;;;;4.70;3.10;;;19.90;99.90;;;;;;5114163;28;20466;-68
2023/08/14 03:53:23;;;;;;;4.00;3.23;;;19.90;99.90;;;;;;5114035;28;20535;-68
2023/08/14 03:55:50;;;;;;;4.73;2.50;;;20.00;99.90;;;;;;5113346;28;20521;-67
2023/08/14 03:58:18;;;;;;;4.17;2.90;;;20.10;99.90;;;;;;5113907;28;20462;-67
2023/08/14 04:00:46;;;;;;;4.43;2.40;;;20.10;99.90;;;;;;5114074;28;20445;-68
2023/08/14 04:03:13;;;;;;;4.43;2.57;;;20.10;99.90;;;;;;5113655;28;20525;-68
2023/08/14 04:05:41;;;;;;;3.67;2.70;;;20.10;99.90;;;;;;5113068;28;20447;-68
2023/08/14 04:08:08;;;;;;;3.50;2.73;;;20.10;99.90;;;;;;5113853;28;20438;-68
2023/08/14 04:10:36;;;;;;;3.63;1.90;;;20.10;99.90;;;;;;5113845;28;20462;-68
2023/08/14 04:13:04;;;;;;;5.07;2.70;;;20.10;99.90;;;;;;5112716;28;20480;-68
2023/08/14 04:15:31;;;;;;;3.77;2.53;;;20.20;99.90;;;;;;5113093;28;20466;-68
2023/08/14 04:18:00;;;;;;;6.77;2.90;;;20.20;99.90;;;;;;5113127;28;20441;-67
2023/08/14 04:20:27;;;;;;;4.37;2.20;;;20.10;99.90;;;;;;5113463;28;20876;-67
2023/08/14 04:22:53;;;;;;;5.00;4.10;;;20.10;99.90;;;;;;5113726;28;20454;-68
2023/08/14 04:25:20;;;;;;;2.53;1.73;;;20.10;99.90;;;;;;5113386;28;20474;-68
2023/08/14 04:27:47;;;;;;;4.30;2.37;;;20.10;99.90;;;;;;5112742;28;20513;-68
2023/08/14 04:30:14;;;;;;;5.67;2.50;;;20.10;99.90;;;;;;5113717;28;20489;-68
2023/08/14 04:32:42;;;;;;;3.07;2.27;;;20.10;99.90;;;;;;5113411;28;20944;-69
2023/08/14 04:35:10;;;;;;;3.90;2.40;;;20.20;99.90;;;;;;5113064;28;20470;-68
2023/08/14 04:37:37;;;;;;;5.30;2.70;;;20.20;99.90;;;;;;5112776;28;20427;-68
2023/08/14 04:40:05;;;;;;;5.73;2.50;;;20.20;99.90;;;;;;5113238;28;20440;-67
2023/08/14 04:42:33;;;;;;;4.97;2.73;;;20.30;99.90;;;;;;5113503;28;20440;-68
2023/08/14 04:45:00;;;;;;;4.53;2.60;;;20.20;99.90;;;;;;5113215;28;20438;-69
2023/08/14 04:47:27;;;;;;;4.77;2.63;;;20.20;99.90;;;;;;5113518;28;20517;-69
2023/08/14 04:49:54;;;;;;;3.30;2.33;;;20.20;99.90;;;;;;5113488;28;20457;-68
2023/08/14 04:52:22;;;;;;;3.37;2.87;;;20.30;99.90;;;;;;5113464;28;20521;-68
2023/08/14 04:54:50;;;;;;;4.50;2.60;;;20.20;99.90;;;;;;5113023;28;20553;-69
2023/08/14 04:57:17;;;;;;;6.00;2.73;;;20.20;99.90;;;;;;5112430;28;20929;-67
2023/08/14 04:59:44;;;;;;;9.27;3.50;;;20.20;99.90;;;;;;5113413;28;20538;-67
2023/08/14 05:02:11;;;;;;;7.27;3.20;;;20.20;99.90;;;;;;5113449;28;20470;-68
2023/08/14 05:04:37;;;;;;;6.20;3.10;;;20.20;99.90;;;;;;5113471;28;20441;-67
2023/08/14 05:07:04;;;;;;;5.27;3.77;;;20.00;99.90;;;;;;5112598;28;20522;-68
2023/08/14 05:09:33;;;;;;;4.23;3.00;;;20.00;99.90;;;;;;5112618;28;21044;-68
2023/08/14 05:12:00;;;;;;;4.07;2.80;;;19.90;99.90;;;;;;5112550;28;20969;-67
2023/08/14 05:14:27;;;;;;;4.10;2.53;;;19.90;99.90;;;;;;5113188;28;20473;-67
2023/08/14 05:16:54;;;;;;;6.70;4.53;;;19.90;99.90;;;;;;5113425;28;20472;-68
2023/08/14 05:19:21;;;;;;;4.10;3.23;;;20.00;99.90;;;;;;5117008;28;20502;-68
2023/08/14 05:21:48;;;;;;;4.27;2.70;;;20.10;99.90;;;;;;5116650;28;20466;-67
2023/08/14 05:24:15;;;;;;;5.00;2.53;;;20.10;99.90;;;;;;5116969;28;20521;-67
2023/08/14 05:26:44;;;;;;;5.00;2.60;;;20.20;99.90;;;;;;5116821;28;20513;-68
2023/08/14 05:29:11;;;;;;;5.00;3.20;;;20.30;99.90;;;;;;5116854;28;20814;-68
2023/08/14 05:31:37;;;;;;;5.93;4.07;;;20.30;99.90;;;;;;5116447;28;20470;-68
2023/08/14 05:34:04;;;;;;;4.97;3.03;;;20.30;99.90;;;;;;5116683;28;20502;-69
2023/08/14 05:36:31;;;;;;;4.50;3.43;;;20.40;99.90;;;;;;5116588;28;20470;-68
2023/08/14 05:38:58;;;;;;;5.70;3.20;;;20.50;99.90;;;;;;5116363;28;20829;-69
2023/08/14 05:41:25;;;;;;;4.53;3.50;;;20.50;99.90;;;;;;5114091;28;20919;-67
2023/08/14 05:43:54;;;;;;;8.73;3.87;;;20.60;99.90;;;;;;5116603;28;20857;-68
2023/08/14 05:46:23;;;;;;;6.00;3.30;;;20.60;99.90;;;;;;5116073;28;20488;-68
2023/08/14 05:48:51;;;;;;;7.30;2.60;;;20.70;99.90;;;;;;5115990;28;20443;-68
2023/08/14 05:51:18;;;;;;;5.10;3.10;;;20.70;99.90;;;;;;5116121;28;20435;-68
2023/08/14 05:53:45;;;;;;;3.27;2.73;;;20.70;99.90;;;;;;5116323;28;20819;-67
2023/08/14 05:56:12;;;;;;;3.30;2.60;;;20.80;99.90;;;;;;5116207;28;20437;-68
2023/08/14 05:58:39;;;;;;;3.80;2.93;;;20.90;99.90;;;;;;5115987;28;20530;-68
2023/08/14 06:01:07;;;;;;;3.63;2.73;;;21.00;99.90;;;;;;5113607;28;20509;-68
2023/08/14 06:03:34;;;;;;;3.60;2.73;;;21.10;99.90;;;;;;5115647;28;20473;-67
2023/08/14 06:06:02;;;;;;;6.20;3.93;;;21.20;99.90;;;;;;5115592;28;20461;-68
2023/08/14 06:08:28;;;;;;;3.20;2.57;;;21.30;99.90;;;;;;5115532;28;20438;-68
2023/08/14 06:10:56;;;;;;;3.10;1.90;;;21.30;99.90;;;;;;5115107;28;20968;-68
2023/08/14 06:13:22;;;;;;;4.40;2.40;;;21.40;99.90;;;;;;5115349;28;20426;-68
2023/08/14 06:15:49;;;;;;;4.50;2.73;;;21.50;99.90;;;;;;5115334;28;20807;-69
2023/08/14 06:18:18;;;;;;;8.73;2.90;;;21.60;99.90;;;;;;5113513;28;20442;-68
2023/08/14 06:20:45;;;;;;;8.43;2.40;;;21.70;99.90;;;;;;5114704;28;20431;-68
2023/08/14 06:23:12;;;;;;;4.07;2.57;;;21.80;99.90;;;;;;5115095;28;20849;-68
2023/08/14 06:25:39;;;;;;;3.47;2.33;;;21.80;99.90;;;;;;5113949;28;20842;-71
2023/08/14 06:28:06;;;;;;;3.97;1.90;;;21.90;99.90;;;;;;5114816;28;20500;-68
2023/08/14 06:30:34;;;;;;;4.13;2.47;;;21.90;99.90;;;;;;5115070;28;20426;-68
2023/08/14 06:33:01;;;;;;;4.10;2.70;;;22.00;99.90;;;;;;5114042;28;20916;-68
2023/08/14 06:35:30;;;;;;;7.23;2.73;;;22.10;99.90;;;;;;5114164;28;20478;-70
2023/08/14 06:37:57;;;;;;;4.63;2.43;;;22.20;99.90;;;;;;5113772;28;20509;-68
2023/08/14 06:40:24;;;;;;;3.83;2.40;;;22.30;99.90;;;;;;5113905;28;20474;-68
2023/08/14 06:42:52;;;;;;;4.77;3.70;;;22.30;99.90;;;;;;5114633;28;20474;-68
2023/08/14 06:45:21;;;;;;;4.57;2.73;;;22.40;99.90;;;;;;5114162;28;20446;-68
2023/08/14 06:47:48;;;;;;;3.80;2.70;;;22.50;99.90;;;;;;5114708;28;20431;-67
2023/08/14 06:50:15;;;;;;;5.60;2.97;;;22.60;99.90;;;;;;5114579;28;20434;-68
2023/08/14 06:52:44;;;;;;;9.20;2.57;;;22.60;99.90;;;;;;5114359;28;20477;-68
2023/08/14 06:55:11;;;;;;;5.80;3.30;;;22.60;99.90;;;;;;5104776;28;20526;-68
2023/08/14 06:57:38;;;;;;;3.23;2.30;;;22.60;99.90;;;;;;5113580;28;20444;-68
2023/08/14 07:00:12;;;;;;;3.93;2.50;;;22.70;99.90;;;;;;5114188;28;20467;-68
2023/08/14 07:02:39;;;;;;;4.60;2.60;;;22.80;99.90;;;;;;5112671;28;20423;-68
2023/08/14 07:05:06;;;;;;;7.50;3.17;;;22.80;99.90;;;;;;5114215;28;20435;-68
2023/08/14 07:07:33;;;;;;;3.30;2.30;;;23.00;99.90;;;;;;5113711;28;20470;-68
2023/08/14 07:10:02;;;;;;;2.97;2.27;;;23.10;99.90;;;;;;5113225;28;20502;-68
2023/08/14 07:12:39;;;;;;;4.10;2.30;;;23.20;99.90;;;;;;5113705;28;20476;-70
2023/08/14 07:15:10;;;;;;;5.43;2.93;;;23.30;99.90;;;;;;5112704;28;20952;-68
2023/08/14 07:17:37;;;;;;;3.40;2.80;;;23.40;99.90;;;;;;5111502;28;20422;-68
2023/08/14 07:20:05;;;;;;;6.83;2.63;;;23.50;99.90;;;;;;5113181;28;20441;-68
2023/08/14 07:22:34;;;;;;;4.90;2.40;;;23.50;99.90;;;;;;5112962;28;20473;-68
2023/08/14 07:25:03;;;;;;;3.30;2.23;;;23.60;99.80;;;;;;5113195;28;20870;-69
2023/08/14 07:27:30;;;;;;;4.07;2.60;;;23.70;99.60;;;;;;5111694;28;20800;-69
2023/08/14 07:29:57;;;;;;;3.70;2.03;;;23.80;99.20;;;;;;5113176;28;20971;-68
2023/08/14 07:32:24;;;;;;;3.00;2.13;;;23.80;99.20;;;;;;5111473;28;20518;-68
2023/08/14 07:34:52;;;;;;;3.73;2.83;;;23.90;99.70;;;;;;5112926;28;20560;-75
2023/08/14 07:37:19;;;;;;;4.87;2.90;;;23.90;99.00;;;;;;5088795;28;20530;-68
2023/08/14 07:39:47;;;;;;;3.70;2.60;;;24.00;98.90;;;;;;5092672;28;20508;-68
2023/08/14 07:42:15;;;;;;;4.40;2.40;;;24.10;99.50;;;;;;5095292;28;20439;-68
2023/08/14 07:44:42;;;;;;;3.90;2.40;;;24.30;99.50;;;;;;5113259;28;20466;-70
2023/08/14 07:47:10;;;;;;;3.03;2.13;;;24.40;99.50;;;;;;5111712;28;20447;-70
2023/08/14 07:49:37;;;;;;;3.93;2.60;;;24.60;99.00;;;;;;5109471;28;20488;-68
2023/08/14 07:52:19;;;;;;;5.30;2.40;;;24.60;99.40;;;;;;5102432;28;20431;-68
2023/08/14 07:54:45;;;;;;;4.90;2.40;;;24.80;99.30;;;;;;5092185;28;20478;-68
2023/08/14 07:57:12;;;;;;;6.50;2.67;;;24.90;99.60;;;;;;5108515;28;20928;-69
2023/08/14 07:59:41;;;;;;;4.57;2.87;;;25.10;99.30;;;;;;5108442;28;20560;-74
2023/08/14 08:02:08;;;;;;;4.00;2.90;;;25.30;99.40;;;;;;5109108;28;20455;-68
2023/08/14 08:04:36;;;;;;;3.70;2.70;;;25.50;97.90;;;;;;5111623;28;20462;-68
2023/08/14 08:07:03;;;;;;;4.93;2.57;;;25.70;98.10;;;;;;5088092;28;20444;-74
2023/08/14 08:09:30;;;;;;;3.97;2.90;;;26.00;97.80;;;;;;5101477;28;20469;-69
2023/08/14 08:11:58;;;;;;;6.00;3.30;;;26.20;96.90;;;;;;5110423;28;20508;-69
2023/08/14 08:14:26;;;;;;;5.40;3.23;;;26.40;95.60;;;;;;5110053;28;20494;-75
2023/08/14 08:16:54;;;;;;;6.00;3.33;;;26.60;94.30;;;;;;5111664;28;20945;-68
2023/08/14 08:19:21;;;;;;;4.13;2.60;;;26.80;92.50;;;;;;5113060;28;20495;-69
2023/08/14 08:21:48;;;;;;;4.00;3.20;;;26.80;91.00;;;;;;5112771;28;20470;-68
2023/08/14 08:24:15;;;;;;;4.43;2.10;;;26.90;91.30;;;;;;5112988;28;20470;-69
2023/08/14 08:26:42;;;;;;;5.60;2.90;;;27.00;90.80;;;;;;5112204;28;20439;-70
2023/08/14 08:29:09;;;;;;;3.67;2.73;;;27.10;89.50;;;;;;5112568;28;20970;-69
2023/08/14 08:31:36;;;;;;;4.73;2.70;;;27.20;88.90;;;;;;5112511;28;20443;-69
2023/08/14 08:34:05;;;;;;;4.77;2.57;;;27.30;86.90;;;;;;5113194;28;20484;-68
2023/08/14 08:36:32;;;;;;;5.17;3.80;;;27.40;86.10;;;;;;5112598;28;20483;-70
2023/08/14 08:38:59;;;;;;;3.60;2.77;;;27.40;85.50;;;;;;5112006;28;20514;-68
2023/08/14 08:41:31;;;;;;;7.27;3.10;;;27.50;86.20;;;;;;5112203;28;20474;-69
2023/08/14 08:44:05;;;;;;;4.23;2.70;;;27.60;87.30;;;;;;5112088;28;20458;-68
2023/08/14 08:46:36;;;;;;;4.20;2.70;;;27.70;86.60;;;;;;5112930;28;20418;-69
2023/08/14 08:49:05;;;;;;;3.73;2.93;;;27.80;86.50;;;;;;5112777;28;20825;-69
2023/08/14 08:51:33;;;;;;;4.10;3.43;;;27.80;85.40;;;;;;5112422;28;20511;-70
2023/08/14 08:54:00;;;;;;;3.67;3.13;;;27.90;85.30;;;;;;5116549;28;20489;-69
2023/08/14 08:56:28;;;;;;;6.10;3.77;;;28.00;85.90;;;;;;5116928;27;20569;-69
2023/08/14 08:59:00;;;;;;;4.30;3.90;;;28.00;86.70;;;;;;5113838;28;20904;-68
2023/08/14 09:01:27;;;;;;;5.30;4.20;;;28.20;86.70;;;;;;5116917;28;20462;-69
2023/08/14 09:03:56;;;;;;;6.13;4.10;;;28.30;86.20;;;;;;5116711;28;20521;-68
2023/08/14 09:06:25;;;;;;;3.90;3.30;;;28.40;85.30;;;;;;5116564;28;20479;-69
2023/08/14 09:08:52;;;;;;;4.30;3.90;;;28.50;83.50;;;;;;5111382;27;20561;-69
2023/08/14 09:11:19;;;;;;;4.33;3.67;;;28.70;81.80;;;;;;5115382;28;20551;-70
2023/08/14 09:13:46;;;;;;;4.00;3.37;;;28.80;80.00;;;;;;5114607;28;20855;-69
2023/08/14 09:16:15;;;;;;;4.00;3.60;;;29.00;79.50;;;;;;5114405;27;20541;-69
2023/08/14 09:18:43;;;;;;;4.03;3.63;;;29.10;79.70;;;;;;5114771;28;20561;-69
2023/08/14 09:21:10;;;;;;;5.00;4.20;;;29.20;78.70;;;;;;5115452;28;20858;-69
2023/08/14 09:23:40;;;;;;;4.50;3.30;;;29.30;76.80;;;;;;5098921;28;20844;-69
2023/08/14 09:26:08;;;;;;;4.30;3.70;;;29.40;77.30;;;;;;5106764;28;20473;-69
2023/08/14 09:28:36;;;;;;;5.50;3.57;;;29.60;75.20;;;;;;5115609;28;20463;-69
2023/08/14 09:31:07;;;;;;;5.20;3.57;;;29.70;75.50;;;;;;5114898;28;20518;-69
2023/08/14 09:33:34;;;;;;;4.60;2.90;;;29.80;75.30;;;;;;5100609;28;20509;-69
2023/08/14 09:36:02;;;;;;;3.83;2.93;;;30.00;72.20;;;;;;5113811;28;20501;-69
2023/08/14 09:38:31;;;;;;;5.37;2.97;;;30.20;71.90;;;;;;5114696;28;20446;-70
2023/08/14 09:41:00;;;;;;;3.53;2.90;;;30.40;71.80;;;;;;5111273;28;20503;-73
2023/08/14 09:43:29;;;;;;;4.60;3.20;;;30.50;69.70;;;;;;5113600;28;20462;-69
2023/08/14 09:46:03;;;;;;;4.10;2.90;;;30.60;68.70;;;;;;5114598;28;20463;-68
2023/08/14 09:48:43;;;;;;;3.57;2.50;;;30.70;66.90;;;;;;5115347;28;20430;-70
2023/08/14 09:51:12;;;;;;;4.50;2.80;;;30.90;65.90;;;;;;5112845;28;20438;-69
2023/08/14 09:53:45;;;;;;;4.00;2.23;;;31.10;65.30;;;;;;5115153;28;20844;-69
2023/08/14 09:56:14;;;;;;;7.27;2.67;;;31.20;67.40;;;;;;5114530;28;20470;-72
2023/08/14 09:58:41;;;;;;;3.73;2.43;;;31.30;65.60;;;;;;5115394;28;20523;-69
2023/08/14 10:01:13;;;;;;;3.67;2.60;;;31.40;62.00;;;;;;5115032;28;20439;-69
2023/08/14 10:03:42;;;;;;;3.93;2.80;;;31.60;63.20;;;;;;5114693;28;20423;-72
2023/08/14 10:06:11;;;;;;;4.10;2.33;;;31.80;63.30;;;;;;5114246;28;20486;-69
2023/08/14 10:08:44;;;;;;;4.10;2.40;;;31.90;62.10;;;;;;5114574;28;20473;-69
2023/08/14 10:11:16;;;;;;;4.20;2.27;;;32.10;63.40;;;;;;5112110;28;20805;-69
2023/08/14 10:13:49;;;;;;;5.07;2.90;;;32.30;61.90;;;;;;5114138;28;20431;-69
2023/08/14 10:16:23;;;;;;;3.70;3.10;;;32.40;58.00;;;;;;5111671;28;20553;-69
2023/08/14 10:18:54;;;;;;;2.93;2.47;;;32.50;60.60;;;;;;5114722;28;20451;-69
2023/08/14 10:21:25;;;;;;;4.17;2.77;;;32.60;59.50;;;;;;5114647;28;20423;-71
2023/08/14 10:23:53;;;;;;;4.27;2.80;;;32.80;58.90;;;;;;5114252;28;20954;-69
2023/08/14 10:26:22;;;;;;;5.60;3.00;;;32.80;56.10;;;;;;5114985;28;20439;-69
2023/08/14 10:28:50;;;;;;;5.60;3.30;;;32.80;54.30;;;;;;5114847;28;20435;-69
2023/08/14 10:31:18;;;;;;;3.90;3.07;;;32.90;55.00;;;;;;5111444;28;20426;-69
2023/08/14 10:33:46;;;;;;;3.63;3.20;;;32.90;56.10;;;;;;5114313;28;20459;-69
2023/08/14 10:36:18;;;;;;;5.50;2.80;;;33.00;56.70;;;;;;5113770;28;20462;-69
2023/08/14 10:38:47;;;;;;;3.57;3.13;;;33.10;55.90;;;;;;5114669;28;20450;-69
2023/08/14 10:41:16;;;;;;;3.50;2.80;;;33.10;56.90;;;;;;5113542;28;20438;-69
2023/08/14 10:43:48;;;;;;;4.37;3.03;;;33.10;55.30;;;;;;5114127;28;20473;-69
2023/08/14 10:46:16;;;;;;;4.00;2.80;;;33.20;54.20;;;;;;5114605;28;20455;-69
2023/08/14 10:48:44;;;;;;;3.87;3.40;;;33.20;55.50;;;;;;5114733;28;20943;-69
2023/08/14 10:51:15;;;;;;;6.10;3.40;;;33.20;56.60;;;;;;5113856;28;20495;-72
2023/08/14 10:53:42;;;;;;;4.10;3.37;;;33.20;56.40;;;;;;5110691;28;20435;-69
2023/08/14 10:56:12;;;;;;;6.83;3.70;;;33.20;56.80;;;;;;5114076;28;20513;-70
2023/08/14 10:58:51;;;;;;;4.27;2.87;;;33.30;57.50;;;;;;5114512;28;20499;-69
2023/08/14 11:01:18;;;;;;;4.47;3.40;;;33.40;55.20;;;;;;5113899;28;20430;-71
2023/08/14 11:04:04;;;;;;;3.90;3.23;;;33.50;56.60;;;;;;5113881;28;20469;-69
2023/08/14 11:07:01;;;;;;;4.10;2.77;;;33.60;57.10;;;;;;5110939;28;20502;-71
2023/08/14 11:09:31;;;;;;;4.13;3.07;;;33.80;56.00;;;;;;5111164;28;20489;-71
2023/08/14 11:12:05;;;;;;;7.67;3.00;;;33.90;55.20;;;;;;5112170;28;20905;-69
2023/08/14 11:14:39;;;;;;;4.63;3.00;;;34.00;54.20;;;;;;5112878;28;20437;-69
2023/08/14 11:17:06;;;;;;;3.80;2.77;;;34.10;55.10;;;;;;5113221;28;20451;-69
2023/08/14 11:19:35;;;;;;;2.90;2.40;;;34.20;53.10;;;;;;5113657;28;20587;-70
2023/08/14 11:22:02;;;;;;;3.23;2.53;;;34.30;52.70;;;;;;5113652;28;20451;-69
2023/08/14 11:24:32;;;;;;;4.93;2.57;;;34.40;51.20;;;;;;5112944;28;20442;-69
2023/08/14 11:26:59;;;;;;;3.80;2.40;;;34.40;49.20;;;;;;5113344;28;20510;-69
2023/08/14 11:29:26;;;;;;;4.47;2.33;;;34.50;48.90;;;;;;5113322;28;20430;-69
2023/08/14 11:31:55;;;;;;;3.60;2.87;;;34.40;50.70;;;;;;5112611;28;20997;-70
2023/08/14 11:34:23;;;;;;;3.37;3.07;;;34.50;51.20;;;;;;5113518;28;20466;-69
2023/08/14 11:37:00;;;;;;;3.90;2.97;;;34.60;50.50;;;;;;5113114;28;20527;-69
2023/08/14 11:39:28;;;;;;;3.63;3.10;;;34.70;51.20;;;;;;5117114;27;20499;-69
2023/08/14 11:41:56;;;;;;;3.50;2.70;;;34.80;51.50;;;;;;5113128;28;20430;-69
2023/08/14 11:44:23;;;;;;;4.97;3.00;;;34.90;51.60;;;;;;5113188;28;20538;-70
2023/08/14 11:46:50;;;;;;;4.00;2.40;;;34.90;50.80;;;;;;5113396;28;20474;-69
2023/08/14 11:49:18;;;;;;;3.83;3.27;;;35.00;49.60;;;;;;5124169;27;20468;-71
2023/08/14 11:51:46;;;;;;;3.70;2.87;;;35.00;49.70;;;;;;5092930;28;20526;-69
2023/08/14 11:54:14;;;;;;;4.47;3.13;;;35.10;47.90;;;;;;5092952;28;20440;-69
2023/08/14 11:56:41;;;;;;;3.47;2.67;;;35.10;48.10;;;;;;5098233;28;20474;-70
2023/08/14 11:59:08;;;;;;;3.80;3.00;;;35.20;50.00;;;;;;5110932;28;20513;-69
2023/08/14 12:01:37;;;;;;;4.23;2.30;;;35.20;51.30;;;;;;5113575;28;20430;-69
2023/08/14 12:04:06;;;;;;;4.13;2.57;;;35.30;51.60;;;;;;5112576;28;20518;-69
2023/08/14 12:06:35;;;;;;;3.87;2.80;;;35.30;51.50;;;;;;5111956;28;20427;-69
2023/08/14 12:09:02;;;;;;;5.23;3.07;;;35.30;49.90;;;;;;5122960;27;20438;-69
2023/08/14 12:11:29;;;;;;;4.07;2.70;;;35.30;50.40;;;;;;5125913;27;20482;-74
2023/08/14 12:13:56;;;;;;;7.63;3.20;;;35.30;51.60;;;;;;5110469;28;20601;-78
2023/08/14 12:16:24;;;;;;;3.80;2.60;;;35.30;52.10;;;;;;5125487;28;20501;-69
2023/08/14 12:18:51;;;;;;;4.23;3.07;;;35.30;51.10;;;;;;5110077;28;20435;-69
2023/08/14 12:21:18;;;;;;;4.03;3.30;;;35.20;51.30;;;;;;5112180;28;20462;-69
2023/08/14 12:23:55;;;;;;;5.13;2.67;;;35.20;51.20;;;;;;5111527;28;20906;-69
2023/08/14 12:26:22;;;;;;;3.33;2.60;;;35.20;51.40;;;;;;5113052;28;20430;-69
2023/08/14 12:28:53;;;;;;;3.73;2.73;;;35.10;50.20;;;;;;5116446;28;20491;-69
2023/08/14 12:31:20;;;;;;;3.67;2.57;;;35.10;50.40;;;;;;5117200;28;20423;-71
2023/08/14 12:33:48;;;;;;;3.40;2.50;;;35.10;50.30;;;;;;5116791;28;20481;-69
2023/08/14 12:36:15;;;;;;;6.27;2.97;;;35.10;52.30;;;;;;5114263;28;20474;-69
2023/08/14 12:38:42;;;;;;;6.03;2.80;;;35.10;52.00;;;;;;5116702;28;20471;-70
2023/08/14 12:41:10;;;;;;;4.10;2.73;;;35.10;52.20;;;;;;5116389;28;20517;-70
2023/08/14 12:43:37;;;;;;;3.60;2.53;;;35.10;50.60;;;;;;5116168;28;20434;-68
2023/08/14 12:46:04;;;;;;;3.73;3.03;;;35.10;50.10;;;;;;5116924;28;20518;-69
2023/08/14 12:48:31;;;;;;;4.20;3.13;;;35.00;50.30;;;;;;5116705;28;20435;-70
2023/08/14 12:50:58;;;;;;;4.30;2.80;;;34.90;50.80;;;;;;5115492;28;20435;-69
2023/08/14 12:53:27;;;;;;;3.10;2.40;;;34.80;52.90;;;;;;5116220;28;20467;-72